PRIVATE WETTERSTATION BILLIGHEIM-ALLFELD                       ZURCK
Wetterdaten: Freitag, 24.03.2017
Datum Zeit Temp. A. Temp. A. min Temp. A. max Feuchte A. Luftdruck Regen Wind Richtung Richtung Sonnenschein ET Solar Taupunkt Windchill Windben Empfang
24.03.2017 00:00 6,8 C 6,8 C 6,9 C 89 % 1018,9 hPa 0,0 l/m 0,0 km/h (0 Bft) NO 55 0 min 0,000 mm 0 W/m 5,1 C 6,8 C 1,6 km/h (1 Bft) 100 %
24.03.2017 00:10 6,7 C 6,7 C 6,8 C 90 % 1019,1 hPa 0,0 l/m 0,0 km/h (0 Bft) NO 48 0 min 0,000 mm 0 W/m 5,2 C 6,7 C 0,0 km/h (0 Bft) 100 %
24.03.2017 00:20 6,5 C 6,5 C 6,7 C 90 % 1019,0 hPa 0,0 l/m 0,0 km/h (0 Bft) NO 48 0 min 0,000 mm 0 W/m 5,0 C 6,5 C 0,0 km/h (0 Bft) 100 %
24.03.2017 00:30 6,3 C 6,3 C 6,5 C 90 % 1019,2 hPa 0,0 l/m 0,0 km/h (0 Bft) NO 47 0 min 0,000 mm 0 W/m 4,8 C 6,3 C 1,6 km/h (1 Bft) 100 %
24.03.2017 00:40 6,2 C 6,2 C 6,3 C 90 % 1019,4 hPa 0,0 l/m 0,0 km/h (0 Bft) NO 47 0 min 0,000 mm 0 W/m 4,7 C 6,2 C 0,0 km/h (0 Bft) 100 %
24.03.2017 00:50 6,1 C 6,1 C 6,2 C 90 % 1019,5 hPa 0,0 l/m 0,0 km/h (0 Bft) NO 47 0 min 0,000 mm 0 W/m 4,6 C 6,1 C 0,0 km/h (0 Bft) 100 %
24.03.2017 01:00 5,9 C 5,9 C 6,1 C 90 % 1019,4 hPa 0,0 l/m 0,8 km/h (0 Bft) NO 44 0 min 0,000 mm 0 W/m 4,4 C 5,9 C 6,4 km/h (2 Bft) 100 %
24.03.2017 01:10 5,8 C 5,8 C 5,9 C 90 % 1019,5 hPa 0,0 l/m 0,0 km/h (0 Bft) NO 44 0 min 0,000 mm 0 W/m 4,3 C 5,8 C 1,6 km/h (1 Bft) 100 %
24.03.2017 01:20 5,6 C 5,6 C 5,8 C 91 % 1019,6 hPa 0,0 l/m 0,0 km/h (0 Bft) NO 44 0 min 0,000 mm 0 W/m 4,2 C 5,6 C 0,0 km/h (0 Bft) 100 %
24.03.2017 01:30 5,6 C 5,6 C 5,6 C 91 % 1020,0 hPa 0,0 l/m 0,5 km/h (0 Bft) NO 51 0 min 0,000 mm 0 W/m 4,2 C 5,6 C 8,0 km/h (2 Bft) 100 %
24.03.2017 01:40 5,6 C 5,5 C 5,6 C 91 % 1020,2 hPa 0,0 l/m 1,1 km/h (1 Bft) NO 36 0 min 0,000 mm 0 W/m 4,2 C 5,6 C 6,4 km/h (2 Bft) 100 %
24.03.2017 01:50 5,6 C 5,6 C 5,6 C 91 % 1020,1 hPa 0,0 l/m 0,7 km/h (0 Bft) NO 34 0 min 0,000 mm 0 W/m 4,2 C 5,6 C 6,4 km/h (2 Bft) 100 %
24.03.2017 02:00 5,6 C 5,6 C 5,6 C 91 % 1020,3 hPa 0,0 l/m 0,1 km/h (0 Bft) NO 34 0 min 0,000 mm 0 W/m 4,2 C 5,6 C 3,2 km/h (1 Bft) 99 %
24.03.2017 02:10 5,4 C 5,4 C 5,6 C 91 % 1020,4 hPa 0,0 l/m 0,1 km/h (0 Bft) NO 34 0 min 0,000 mm 0 W/m 4,1 C 5,4 C 3,2 km/h (1 Bft) 100 %
24.03.2017 02:20 5,4 C 5,4 C 5,4 C 91 % 1020,6 hPa 0,0 l/m 0,9 km/h (0 Bft) N-NO 33 0 min 0,000 mm 0 W/m 4,1 C 5,4 C 6,4 km/h (2 Bft) 100 %
24.03.2017 02:30 5,4 C 5,4 C 5,5 C 91 % 1020,7 hPa 0,0 l/m 0,2 km/h (0 Bft) NO 34 0 min 0,000 mm 0 W/m 4,1 C 5,4 C 3,2 km/h (1 Bft) 100 %
24.03.2017 02:40 5,3 C 5,3 C 5,4 C 91 % 1020,6 hPa 0,0 l/m 0,0 km/h (0 Bft) NO 46 0 min 0,000 mm 0 W/m 4,0 C 5,3 C 1,6 km/h (1 Bft) 100 %
24.03.2017 02:50 5,3 C 5,2 C 5,3 C 91 % 1020,7 hPa 0,0 l/m 0,4 km/h (0 Bft) N-NO 22 0 min 0,000 mm 0 W/m 4,0 C 5,3 C 6,4 km/h (2 Bft) 100 %
24.03.2017 03:00 5,2 C 5,1 C 5,3 C 91 % 1020,9 hPa 0,0 l/m 0,0 km/h (0 Bft) N-NO 22 0 min 0,000 mm 0 W/m 3,9 C 5,2 C 1,6 km/h (1 Bft) 100 %
24.03.2017 03:10 5,1 C 5,1 C 5,2 C 91 % 1021,0 hPa 0,0 l/m 0,0 km/h (0 Bft) N-NO 22 0 min 0,000 mm 0 W/m 3,8 C 5,1 C 0,0 km/h (0 Bft) 100 %
24.03.2017 03:20 4,9 C 4,9 C 5,1 C 91 % 1021,0 hPa 0,0 l/m 0,0 km/h (0 Bft) N-NO 22 0 min 0,000 mm 0 W/m 3,6 C 4,9 C 0,0 km/h (0 Bft) 100 %
24.03.2017 03:30 4,8 C 4,8 C 4,9 C 91 % 1021,1 hPa 0,0 l/m 0,0 km/h (0 Bft) N-NO 22 0 min 0,000 mm 0 W/m 3,5 C 4,8 C 0,0 km/h (0 Bft) 91 %
24.03.2017 03:40 4,7 C 4,7 C 4,8 C 91 % 1021,3 hPa 0,0 l/m 0,0 km/h (0 Bft) N-NO 22 0 min 0,000 mm 0 W/m 3,4 C 4,7 C 0,0 km/h (0 Bft) 100 %
24.03.2017 03:50 4,6 C 4,6 C 4,7 C 91 % 1021,4 hPa 0,0 l/m 0,0 km/h (0 Bft) N-NO 22 0 min 0,000 mm 0 W/m 3,3 C 4,6 C 0,0 km/h (0 Bft) 100 %
24.03.2017 04:00 4,4 C 4,4 C 4,6 C 91 % 1021,4 hPa 0,0 l/m 0,0 km/h (0 Bft) N-NO 22 0 min 0,000 mm 0 W/m 3,1 C 4,4 C 0,0 km/h (0 Bft) 100 %
24.03.2017 04:10 4,3 C 4,3 C 4,4 C 91 % 1021,5 hPa 0,0 l/m 0,0 km/h (0 Bft) N-NO 22 0 min 0,000 mm 0 W/m 3,0 C 4,3 C 0,0 km/h (0 Bft) 99 %
24.03.2017 04:20 4,5 C 4,3 C 4,5 C 91 % 1021,5 hPa 0,0 l/m 0,0 km/h (0 Bft) N-NO 22 0 min 0,000 mm 0 W/m 3,2 C 4,5 C 0,0 km/h (0 Bft) 100 %
24.03.2017 04:30 4,9 C 4,5 C 4,9 C 92 % 1021,8 hPa 0,0 l/m 0,7 km/h (0 Bft) N-NO 32 0 min 0,000 mm 0 W/m 3,7 C 4,9 C 6,4 km/h (2 Bft) 100 %
24.03.2017 04:40 5,2 C 4,9 C 5,2 C 91 % 1021,8 hPa 0,0 l/m 0,1 km/h (0 Bft) N-NO 32 0 min 0,000 mm 0 W/m 3,9 C 5,2 C 4,8 km/h (1 Bft) 100 %
24.03.2017 04:50 5,3 C 5,2 C 5,3 C 91 % 1021,9 hPa 0,0 l/m 0,0 km/h (0 Bft) N-NO 32 0 min 0,000 mm 0 W/m 4,0 C 5,3 C 0,0 km/h (0 Bft) 100 %
24.03.2017 05:00 5,6 C 5,3 C 5,6 C 91 % 1022,0 hPa 0,0 l/m 0,4 km/h (0 Bft) N-NO 12 0 min 0,000 mm 0 W/m 4,2 C 5,6 C 4,8 km/h (1 Bft) 100 %
24.03.2017 05:10 5,8 C 5,6 C 5,8 C 91 % 1022,2 hPa 0,0 l/m 0,2 km/h (0 Bft) NO 42 0 min 0,000 mm 0 W/m 4,4 C 5,8 C 4,8 km/h (1 Bft) 100 %
24.03.2017 05:20 6,0 C 5,8 C 6,0 C 91 % 1022,2 hPa 0,0 l/m 0,6 km/h (0 Bft) NO 42 0 min 0,000 mm 0 W/m 4,6 C 6,0 C 4,8 km/h (1 Bft) 100 %
24.03.2017 05:30 6,1 C 6,0 C 6,1 C 91 % 1022,4 hPa 0,0 l/m 1,6 km/h (1 Bft) NO 42 0 min 0,000 mm 0 W/m 4,7 C 6,1 C 4,8 km/h (1 Bft) 100 %
24.03.2017 05:40 6,2 C 6,1 C 6,2 C 91 % 1022,5 hPa 0,0 l/m 0,0 km/h (0 Bft) NO 36 0 min 0,000 mm 0 W/m 4,8 C 6,2 C 1,6 km/h (1 Bft) 100 %
24.03.2017 05:50 6,3 C 6,2 C 6,3 C 91 % 1022,6 hPa 0,0 l/m 0,4 km/h (0 Bft) NO 44 0 min 0,000 mm 0 W/m 4,9 C 6,3 C 6,4 km/h (2 Bft) 100 %
24.03.2017 06:00 6,3 C 6,3 C 6,3 C 91 % 1022,6 hPa 0,0 l/m 2,6 km/h (1 Bft) NO 37 0 min 0,000 mm 0 W/m 4,9 C 6,3 C 6,4 km/h (2 Bft) 100 %
24.03.2017 06:10 6,4 C 6,3 C 6,4 C 90 % 1022,5 hPa 0,0 l/m 1,7 km/h (1 Bft) NO 44 0 min 0,000 mm 0 W/m 4,9 C 6,4 C 8,0 km/h (2 Bft) 100 %
24.03.2017 06:20 6,5 C 6,4 C 6,5 C 90 % 1022,5 hPa 0,0 l/m 3,0 km/h (1 Bft) NO 43 0 min 0,000 mm 0 W/m 5,0 C 6,5 C 11,3 km/h (2 Bft) 100 %
24.03.2017 06:30 6,6 C 6,5 C 6,6 C 89 % 1022,4 hPa 0,0 l/m 3,6 km/h (1 Bft) N-NO 13 0 min 0,000 mm 5 W/m 4,9 C 6,6 C 11,3 km/h (2 Bft) 100 %
24.03.2017 06:40 6,6 C 6,6 C 6,6 C 89 % 1022,4 hPa 0,0 l/m 0,4 km/h (0 Bft) N-NO 25 0 min 0,000 mm 9 W/m 4,9 C 6,6 C 4,8 km/h (1 Bft) 100 %
24.03.2017 06:50 6,6 C 6,6 C 6,6 C 89 % 1022,4 hPa 0,0 l/m 0,5 km/h (0 Bft) N-NO 17 0 min 0,000 mm 14 W/m 4,9 C 6,6 C 6,4 km/h (2 Bft) 100 %
24.03.2017 07:00 6,6 C 6,6 C 6,6 C 89 % 1022,4 hPa 0,0 l/m 1,9 km/h (1 Bft) NO 39 0 min 0,000 mm 23 W/m 4,9 C 6,6 C 6,4 km/h (2 Bft) 100 %
24.03.2017 07:10 6,7 C 6,6 C 6,7 C 89 % 1022,3 hPa 0,0 l/m 2,6 km/h (1 Bft) NO 35 0 min 0,000 mm 32 W/m 5,0 C 6,7 C 12,9 km/h (3 Bft) 100 %
24.03.2017 07:20 6,8 C 6,7 C 6,8 C 89 % 1022,4 hPa 0,0 l/m 3,3 km/h (1 Bft) NO 46 0 min 0,000 mm 33 W/m 5,1 C 6,8 C 11,3 km/h (2 Bft) 100 %
24.03.2017 07:30 6,8 C 6,8 C 6,8 C 88 % 1022,2 hPa 0,0 l/m 2,4 km/h (1 Bft) NO 40 0 min 0,000 mm 49 W/m 5,0 C 6,8 C 11,3 km/h (2 Bft) 91 %
24.03.2017 07:40 6,9 C 6,8 C 6,9 C 88 % 1022,6 hPa 0,0 l/m 4,0 km/h (1 Bft) NO 56 0 min 0,000 mm 63 W/m 5,1 C 6,9 C 16,1 km/h (3 Bft) 100 %
24.03.2017 07:50 7,1 C 6,9 C 7,1 C 88 % 1023,4 hPa 0,0 l/m 2,5 km/h (1 Bft) N-NO 30 0 min 0,000 mm 70 W/m 5,2 C 7,1 C 16,1 km/h (3 Bft) 99 %
24.03.2017 08:00 7,2 C 7,1 C 7,2 C 87 % 1023,2 hPa 0,0 l/m 3,0 km/h (1 Bft) NO 45 0 min 0,025 mm 67 W/m 5,2 C 7,2 C 9,7 km/h (2 Bft) 99 %
24.03.2017 08:10 7,3 C 7,2 C 7,3 C 87 % 1023,8 hPa 0,0 l/m 1,1 km/h (1 Bft) N-NO 14 0 min 0,000 mm 58 W/m 5,3 C 7,3 C 11,3 km/h (2 Bft) 100 %
24.03.2017 08:20 7,3 C 7,3 C 7,3 C 87 % 1023,7 hPa 0,0 l/m 1,7 km/h (1 Bft) NO 49 0 min 0,000 mm 60 W/m 5,3 C 7,3 C 11,3 km/h (2 Bft) 100 %
24.03.2017 08:30 7,3 C 7,3 C 7,3 C 86 % 1023,7 hPa 0,0 l/m 1,9 km/h (1 Bft) O 90 0 min 0,000 mm 67 W/m 5,1 C 7,3 C 11,3 km/h (2 Bft) 100 %
24.03.2017 08:40 7,4 C 7,3 C 7,4 C 87 % 1023,7 hPa 0,0 l/m 1,0 km/h (0 Bft) N-NO 16 0 min 0,000 mm 70 W/m 5,4 C 7,4 C 6,4 km/h (2 Bft) 100 %
24.03.2017 08:50 7,5 C 7,4 C 7,5 C 87 % 1023,5 hPa 0,0 l/m 1,4 km/h (1 Bft) NO 39 0 min 0,000 mm 91 W/m 5,5 C 7,5 C 6,4 km/h (2 Bft) 100 %
24.03.2017 09:00 7,5 C 7,5 C 7,5 C 86 % 1023,6 hPa 0,0 l/m 4,8 km/h (1 Bft) N-NO 16 0 min 0,026 mm 97 W/m 5,3 C 7,5 C 16,1 km/h (3 Bft) 100 %
24.03.2017 09:10 7,6 C 7,5 C 7,6 C 87 % 1023,5 hPa 0,0 l/m 3,2 km/h (1 Bft) N-NO 32 0 min 0,000 mm 109 W/m 5,6 C 7,6 C 9,7 km/h (2 Bft) 100 %
24.03.2017 09:20 7,6 C 7,5 C 7,6 C 86 % 1023,8 hPa 0,0 l/m 4,7 km/h (1 Bft) NO 48 0 min 0,000 mm 144 W/m 5,4 C 7,6 C 9,7 km/h (2 Bft) 100 %
24.03.2017 09:30 7,7 C 7,6 C 7,7 C 86 % 1024,1 hPa 0,0 l/m 3,8 km/h (1 Bft) NW 322 0 min 0,000 mm 123 W/m 5,5 C 7,7 C 14,5 km/h (3 Bft) 98 %
24.03.2017 09:40 7,7 C 7,6 C 7,7 C 85 % 1024,4 hPa 0,0 l/m 3,2 km/h (1 Bft) O 83 0 min 0,000 mm 116 W/m 5,3 C 7,7 C 19,3 km/h (3 Bft) 100 %
24.03.2017 09:50 7,8 C 7,7 C 7,8 C 85 % 1024,5 hPa 0,0 l/m 1,7 km/h (1 Bft) O 82 0 min 0,000 mm 98 W/m 5,4 C 7,8 C 11,3 km/h (2 Bft) 99 %
24.03.2017 10:00 7,8 C 7,7 C 7,8 C 86 % 1024,4 hPa 0,0 l/m 1,7 km/h (1 Bft) NO 34 0 min 0,051 mm 127 W/m 5,6 C 7,8 C 11,3 km/h (2 Bft) 100 %
24.03.2017 10:10 7,8 C 7,8 C 7,8 C 85 % 1024,7 hPa 0,0 l/m 1,1 km/h (1 Bft) NO 42 0 min 0,000 mm 105 W/m 5,4 C 7,8 C 9,7 km/h (2 Bft) 91 %
24.03.2017 10:20 7,9 C 7,8 C 7,9 C 85 % 1025,0 hPa 0,0 l/m 1,7 km/h (1 Bft) O-NO 74 0 min 0,000 mm 116 W/m 5,5 C 7,9 C 14,5 km/h (3 Bft) 100 %
24.03.2017 10:30 8,0 C 7,9 C 8,0 C 85 % 1025,0 hPa 0,0 l/m 1,1 km/h (1 Bft) NO 40 0 min 0,000 mm 111 W/m 5,6 C 8,0 C 16,1 km/h (3 Bft) 99 %
24.03.2017 10:40 8,0 C 8,0 C 8,0 C 85 % 1025,1 hPa 0,0 l/m 2,9 km/h (1 Bft) O 80 0 min 0,000 mm 97 W/m 5,6 C 8,0 C 11,3 km/h (2 Bft) 99 %
24.03.2017 10:50 8,0 C 8,0 C 8,1 C 85 % 1025,3 hPa 0,0 l/m 1,8 km/h (1 Bft) NO 45 0 min 0,000 mm 86 W/m 5,6 C 8,0 C 11,3 km/h (2 Bft) 100 %
24.03.2017 11:00 8,1 C 8,0 C 8,1 C 85 % 1025,4 hPa 0,0 l/m 1,2 km/h (1 Bft) NO 44 0 min 0,050 mm 91 W/m 5,7 C 8,1 C 8,0 km/h (2 Bft) 99 %
24.03.2017 11:10 8,1 C 8,1 C 8,1 C 86 % 1025,4 hPa 0,0 l/m 1,0 km/h (0 Bft) NO 42 0 min 0,000 mm 109 W/m 5,9 C 8,1 C 6,4 km/h (2 Bft) 100 %
24.03.2017 11:20 8,2 C 8,1 C 8,2 C 85 % 1025,3 hPa 0,0 l/m 1,1 km/h (1 Bft) NO 43 0 min 0,000 mm 134 W/m 5,8 C 8,2 C 11,3 km/h (2 Bft) 100 %
24.03.2017 11:30 8,3 C 8,2 C 8,3 C 85 % 1025,4 hPa 0,0 l/m 1,6 km/h (1 Bft) NO 36 0 min 0,000 mm 127 W/m 5,9 C 8,3 C 11,3 km/h (2 Bft) 91 %
24.03.2017 11:40 8,3 C 8,3 C 8,3 C 85 % 1025,4 hPa 0,0 l/m 1,1 km/h (1 Bft) NO 35 0 min 0,000 mm 111 W/m 5,9 C 8,3 C 9,7 km/h (2 Bft) 100 %
24.03.2017 11:50 8,3 C 8,3 C 8,4 C 85 % 1025,3 hPa 0,0 l/m 2,1 km/h (1 Bft) NO 37 0 min 0,000 mm 132 W/m 5,9 C 8,3 C 9,7 km/h (2 Bft) 100 %
24.03.2017 12:00 8,4 C 8,3 C 8,4 C 85 % 1025,3 hPa 0,0 l/m 3,9 km/h (1 Bft) NO 38 10 min 0,051 mm 153 W/m 6,0 C 8,4 C 11,3 km/h (2 Bft) 100 %
24.03.2017 12:10 8,6 C 8,4 C 8,6 C 85 % 1025,4 hPa 0,0 l/m 1,7 km/h (1 Bft) NO 38 0 min 0,000 mm 137 W/m 6,2 C 8,6 C 8,0 km/h (2 Bft) 100 %
24.03.2017 12:20 8,6 C 8,6 C 8,6 C 83 % 1025,8 hPa 0,0 l/m 3,7 km/h (1 Bft) NO 51 0 min 0,000 mm 135 W/m 5,9 C 8,6 C 16,1 km/h (3 Bft) 100 %
24.03.2017 12:30 8,7 C 8,6 C 8,7 C 83 % 1026,2 hPa 0,0 l/m 2,0 km/h (1 Bft) O-NO 78 0 min 0,000 mm 125 W/m 6,0 C 8,7 C 16,1 km/h (3 Bft) 100 %
24.03.2017 12:40 8,8 C 8,7 C 8,8 C 83 % 1025,9 hPa 0,0 l/m 0,5 km/h (0 Bft) NO 40 10 min 0,000 mm 155 W/m 6,1 C 8,8 C 8,0 km/h (2 Bft) 100 %
24.03.2017 12:50 8,9 C 8,8 C 8,9 C 82 % 1026,2 hPa 0,0 l/m 1,0 km/h (0 Bft) NO 38 0 min 0,000 mm 141 W/m 6,0 C 8,9 C 14,5 km/h (3 Bft) 100 %
24.03.2017 13:00 9,0 C 8,9 C 9,0 C 83 % 1025,9 hPa 0,0 l/m 2,3 km/h (1 Bft) NO 53 10 min 0,076 mm 176 W/m 6,3 C 9,0 C 9,7 km/h (2 Bft) 100 %
24.03.2017 13:10 9,2 C 9,0 C 9,2 C 83 % 1025,7 hPa 0,0 l/m 1,1 km/h (1 Bft) NO 37 10 min 0,000 mm 295 W/m 6,5 C 9,2 C 9,7 km/h (2 Bft) 100 %
24.03.2017 13:20 9,5 C 9,2 C 9,5 C 82 % 1025,9 hPa 0,0 l/m 1,3 km/h (1 Bft) N-NO 32 10 min 0,000 mm 200 W/m 6,6 C 9,5 C 9,7 km/h (2 Bft) 99 %
24.03.2017 13:30 9,6 C 9,5 C 9,6 C 79 % 1025,9 hPa 0,0 l/m 4,1 km/h (1 Bft) NO 47 10 min 0,000 mm 229 W/m 6,1 C 9,6 C 19,3 km/h (3 Bft) 100 %
24.03.2017 13:40 9,5 C 9,5 C 9,6 C 81 % 1025,9 hPa 0,0 l/m 2,5 km/h (1 Bft) NO 42 10 min 0,000 mm 169 W/m 6,4 C 9,5 C 11,3 km/h (2 Bft) 100 %
24.03.2017 13:50 9,6 C 9,5 C 9,6 C 80 % 1025,8 hPa 0,0 l/m 1,7 km/h (1 Bft) NO 41 10 min 0,000 mm 178 W/m 6,3 C 9,6 C 9,7 km/h (2 Bft) 100 %
24.03.2017 14:00 9,6 C 9,6 C 9,6 C 80 % 1025,7 hPa 0,0 l/m 2,9 km/h (1 Bft) NO 42 10 min 0,102 mm 200 W/m 6,3 C 9,6 C 11,3 km/h (2 Bft) 100 %
24.03.2017 14:10 9,6 C 9,6 C 9,6 C 80 % 1025,6 hPa 0,0 l/m 3,7 km/h (1 Bft) NO 38 10 min 0,000 mm 206 W/m 6,3 C 9,6 C 16,1 km/h (3 Bft) 100 %
24.03.2017 14:20 9,6 C 9,6 C 9,6 C 80 % 1025,6 hPa 0,0 l/m 2,5 km/h (1 Bft) NO 43 10 min 0,000 mm 241 W/m 6,3 C 9,6 C 17,7 km/h (3 Bft) 100 %
24.03.2017 14:30 9,8 C 9,6 C 9,8 C 80 % 1025,6 hPa 0,0 l/m 1,2 km/h (1 Bft) NO 43 10 min 0,000 mm 204 W/m 6,5 C 9,8 C 9,7 km/h (2 Bft) 100 %
24.03.2017 14:40 9,9 C 9,8 C 9,9 C 79 % 1025,4 hPa 0,0 l/m 2,2 km/h (1 Bft) N-NO 22 10 min 0,000 mm 244 W/m 6,4 C 9,9 C 11,3 km/h (2 Bft) 100 %
24.03.2017 14:50 10,0 C 9,9 C 10,0 C 78 % 1025,5 hPa 0,0 l/m 2,9 km/h (1 Bft) O-NO 65 10 min 0,000 mm 223 W/m 6,3 C 10,0 C 14,5 km/h (3 Bft) 100 %
24.03.2017 15:00 10,1 C 10,0 C 10,1 C 78 % 1025,6 hPa 0,0 l/m 4,0 km/h (1 Bft) NO 47 10 min 0,102 mm 207 W/m 6,4 C 10,1 C 14,5 km/h (3 Bft) 100 %
24.03.2017 15:10 10,2 C 10,1 C 10,2 C 77 % 1025,7 hPa 0,0 l/m 2,9 km/h (1 Bft) NO 44 10 min 0,000 mm 193 W/m 6,4 C 10,2 C 11,3 km/h (2 Bft) 100 %
24.03.2017 15:20 10,1 C 10,1 C 10,2 C 76 % 1025,7 hPa 0,0 l/m 6,0 km/h (2 Bft) NO 46 10 min 0,000 mm 193 W/m 6,1 C 10,1 C 14,5 km/h (3 Bft) 99 %
24.03.2017 15:30 10,2 C 10,1 C 10,2 C 78 % 1025,7 hPa 0,0 l/m 2,0 km/h (1 Bft) NO 47 10 min 0,000 mm 197 W/m 6,5 C 10,2 C 9,7 km/h (2 Bft) 100 %
24.03.2017 15:40 10,3 C 10,2 C 10,3 C 78 % 1025,8 hPa 0,0 l/m 1,7 km/h (1 Bft) O 84 10 min 0,000 mm 163 W/m 6,6 C 10,3 C 19,3 km/h (3 Bft) 100 %
24.03.2017 15:50 10,2 C 10,2 C 10,3 C 77 % 1025,8 hPa 0,0 l/m 2,9 km/h (1 Bft) NO 51 0 min 0,000 mm 132 W/m 6,4 C 10,2 C 17,7 km/h (3 Bft) 100 %
24.03.2017 16:00 10,2 C 10,2 C 10,2 C 78 % 1025,9 hPa 0,0 l/m 0,7 km/h (0 Bft) O-NO 78 0 min 0,101 mm 144 W/m 6,5 C 10,2 C 8,0 km/h (2 Bft) 100 %
24.03.2017 16:10 10,3 C 10,2 C 10,3 C 78 % 1025,8 hPa 0,0 l/m 0,9 km/h (0 Bft) O 83 10 min 0,000 mm 155 W/m 6,6 C 10,3 C 11,3 km/h (2 Bft) 100 %
24.03.2017 16:20 10,4 C 10,3 C 10,4 C 77 % 1025,8 hPa 0,0 l/m 0,6 km/h (0 Bft) NO 40 10 min 0,000 mm 167 W/m 6,5 C 10,4 C 6,4 km/h (2 Bft) 100 %
24.03.2017 16:30 10,3 C 10,3 C 10,4 C 77 % 1025,9 hPa 0,0 l/m 1,0 km/h (0 Bft) NO 36 0 min 0,000 mm 104 W/m 6,4 C 10,3 C 6,4 km/h (2 Bft) 100 %
24.03.2017 16:40 10,3 C 10,3 C 10,3 C 77 % 1025,8 hPa 0,0 l/m 0,7 km/h (0 Bft) NO 50 0 min 0,000 mm 98 W/m 6,4 C 10,3 C 9,7 km/h (2 Bft) 100 %
24.03.2017 16:50 10,2 C 10,2 C 10,3 C 77 % 1025,7 hPa 0,0 l/m 0,2 km/h (0 Bft) N-NO 28 0 min 0,000 mm 100 W/m 6,4 C 10,2 C 6,4 km/h (2 Bft) 100 %
24.03.2017 17:00 10,1 C 10,1 C 10,2 C 78 % 1025,8 hPa 0,0 l/m 0,0 km/h (0 Bft) NO 46 0 min 0,076 mm 93 W/m 6,4 C 10,1 C 1,6 km/h (1 Bft) 100 %
24.03.2017 17:10 10,1 C 10,1 C 10,1 C 78 % 1025,8 hPa 0,0 l/m 0,6 km/h (0 Bft) NO 47 0 min 0,000 mm 74 W/m 6,4 C 10,1 C 9,7 km/h (2 Bft) 100 %
24.03.2017 17:20 10,0 C 10,0 C 10,1 C 78 % 1025,8 hPa 0,0 l/m 0,0 km/h (0 Bft) NO 46 0 min 0,000 mm 67 W/m 6,3 C 10,0 C 0,0 km/h (0 Bft) 100 %
24.03.2017 17:30 9,9 C 9,9 C 10,0 C 79 % 1025,9 hPa 0,0 l/m 0,3 km/h (0 Bft) N-NO 30 0 min 0,000 mm 49 W/m 6,4 C 9,9 C 6,4 km/h (2 Bft) 100 %
24.03.2017 17:40 9,9 C 9,9 C 9,9 C 78 % 1026,0 hPa 0,0 l/m 0,8 km/h (0 Bft) N-NO 26 0 min 0,000 mm 44 W/m 6,2 C 9,9 C 9,7 km/h (2 Bft) 99 %
24.03.2017 17:50 9,8 C 9,8 C 9,9 C 78 % 1026,1 hPa 0,0 l/m 1,0 km/h (0 Bft) O-NO 74 0 min 0,000 mm 44 W/m 6,1 C 9,8 C 9,7 km/h (2 Bft) 99 %
24.03.2017 18:00 9,7 C 9,7 C 9,8 C 78 % 1026,2 hPa 0,0 l/m 0,1 km/h (0 Bft) NO 44 0 min 0,026 mm 32 W/m 6,1 C 9,7 C 6,4 km/h (2 Bft) 99 %
24.03.2017 18:10 9,6 C 9,6 C 9,8 C 78 % 1026,2 hPa 0,0 l/m 0,0 km/h (0 Bft) NO 44 0 min 0,000 mm 25 W/m 6,0 C 9,6 C 1,6 km/h (1 Bft) 99 %
24.03.2017 18:20 9,5 C 9,5 C 9,6 C 79 % 1026,3 hPa 0,0 l/m 0,0 km/h (0 Bft) NO 41 0 min 0,000 mm 14 W/m 6,0 C 9,5 C 0,0 km/h (0 Bft) 99 %
24.03.2017 18:30 9,3 C 9,3 C 9,5 C 79 % 1026,3 hPa 0,0 l/m 0,0 km/h (0 Bft) NO 41 0 min 0,000 mm 7 W/m 5,8 C 9,3 C 0,0 km/h (0 Bft) 99 %
24.03.2017 18:40 9,1 C 9,1 C 9,3 C 79 % 1026,4 hPa 0,0 l/m 0,0 km/h (0 Bft) NO 41 0 min 0,000 mm 0 W/m 5,7 C 9,1 C 0,0 km/h (0 Bft) 100 %
24.03.2017 18:50 8,8 C 8,8 C 9,1 C 80 % 1026,6 hPa 0,0 l/m 0,0 km/h (0 Bft) NO 41 0 min 0,000 mm 0 W/m 5,5 C 8,8 C 0,0 km/h (0 Bft) 100 %
24.03.2017 19:00 8,6 C 8,6 C 8,8 C 81 % 1026,5 hPa 0,0 l/m 0,0 km/h (0 Bft) NO 42 0 min 0,000 mm 0 W/m 5,5 C 8,6 C 0,0 km/h (0 Bft) 99 %
24.03.2017 19:10 8,4 C 8,4 C 8,6 C 82 % 1026,8 hPa 0,0 l/m 0,0 km/h (0 Bft) NO 51 0 min 0,000 mm 0 W/m 5,5 C 8,4 C 1,6 km/h (1 Bft) 98 %
24.03.2017 19:20 8,2 C 8,2 C 8,4 C 82 % 1026,8 hPa 0,0 l/m 0,7 km/h (0 Bft) O 80 0 min 0,000 mm 0 W/m 5,3 C 8,2 C 9,7 km/h (2 Bft) 99 %
24.03.2017 19:30 8,0 C 8,0 C 8,2 C 82 % 1026,8 hPa 0,0 l/m 0,0 km/h (0 Bft) O 79 0 min 0,000 mm 0 W/m 5,1 C 8,0 C 1,6 km/h (1 Bft) 99 %
24.03.2017 19:40 7,8 C 7,8 C 8,0 C 83 % 1026,8 hPa 0,0 l/m 0,0 km/h (0 Bft) O-NO 77 0 min 0,000 mm 0 W/m 5,1 C 7,8 C 0,0 km/h (0 Bft) 99 %
24.03.2017 19:50 7,7 C 7,7 C 7,8 C 83 % 1026,9 hPa 0,0 l/m 0,0 km/h (0 Bft) O-NO 77 0 min 0,000 mm 0 W/m 5,0 C 7,7 C 0,0 km/h (0 Bft) 100 %
24.03.2017 20:00 7,5 C 7,5 C 7,7 C 83 % 1027,0 hPa 0,0 l/m 0,0 km/h (0 Bft) O-NO 75 0 min 0,000 mm 0 W/m 4,8 C 7,5 C 1,6 km/h (1 Bft) 99 %
24.03.2017 20:10 7,3 C 7,3 C 7,5 C 84 % 1027,1 hPa 0,0 l/m 0,0 km/h (0 Bft) O-NO 74 0 min 0,000 mm 0 W/m 4,8 C 7,3 C 1,6 km/h (1 Bft) 100 %
24.03.2017 20:20 7,1 C 7,1 C 7,3 C 85 % 1027,2 hPa 0,0 l/m 0,2 km/h (0 Bft) O-NO 74 0 min 0,000 mm 0 W/m 4,8 C 7,1 C 3,2 km/h (1 Bft) 99 %
24.03.2017 20:30 6,8 C 6,8 C 7,1 C 85 % 1027,3 hPa 0,0 l/m 0,0 km/h (0 Bft) O-NO 74 0 min 0,000 mm 0 W/m 4,5 C 6,8 C 1,6 km/h (1 Bft) 99 %
24.03.2017 20:40 6,7 C 6,6 C 6,9 C 86 % 1027,4 hPa 0,0 l/m 0,0 km/h (0 Bft) O-NO 74 0 min 0,000 mm 0 W/m 4,5 C 6,7 C 0,0 km/h (0 Bft) 99 %
24.03.2017 20:50 6,4 C 6,4 C 6,7 C 86 % 1027,6 hPa 0,0 l/m 0,0 km/h (0 Bft) O-NO 74 0 min 0,000 mm 0 W/m 4,2 C 6,4 C 0,0 km/h (0 Bft) 99 %
24.03.2017 21:00 6,3 C 6,3 C 6,4 C 87 % 1027,6 hPa 0,0 l/m 0,0 km/h (0 Bft) O-NO 74 0 min 0,000 mm 0 W/m 4,3 C 6,3 C 0,0 km/h (0 Bft) 99 %
24.03.2017 21:10 6,1 C 6,1 C 6,3 C 87 % 1027,9 hPa 0,0 l/m 0,0 km/h (0 Bft) N 0 0 min 0,000 mm 0 W/m 4,1 C 6,1 C 0,0 km/h (0 Bft) 98 %
24.03.2017 21:20 5,9 C 5,9 C 6,1 C 87 % 1027,8 hPa 0,0 l/m 0,0 km/h (0 Bft) N 0 0 min 0,000 mm 0 W/m 3,9 C 5,9 C 0,0 km/h (0 Bft) 97 %
24.03.2017 21:30 5,8 C 5,8 C 5,9 C 88 % 1027,9 hPa 0,0 l/m 0,0 km/h (0 Bft) N 0 0 min 0,000 mm 0 W/m 4,0 C 5,8 C 0,0 km/h (0 Bft) 98 %
24.03.2017 21:40 5,6 C 5,6 C 5,8 C 88 % 1028,0 hPa 0,0 l/m 0,0 km/h (0 Bft) N 0 0 min 0,000 mm 0 W/m 3,8 C 5,6 C 0,0 km/h (0 Bft) 87 %
24.03.2017 21:50 5,4 C 5,4 C 5,6 C 89 % 1028,1 hPa 0,0 l/m 0,0 km/h (0 Bft) O-NO 67 0 min 0,000 mm 0 W/m 3,7 C 5,4 C 1,6 km/h (1 Bft) 97 %
24.03.2017 22:00 5,3 C 5,3 C 5,4 C 89 % 1028,0 hPa 0,0 l/m 0,0 km/h (0 Bft) N 0 0 min 0,000 mm 0 W/m 3,6 C 5,3 C 0,0 km/h (0 Bft) 98 %
24.03.2017 22:10 5,2 C 5,2 C 5,3 C 89 % 1028,0 hPa 0,0 l/m 0,0 km/h (0 Bft) N 0 0 min 0,000 mm 0 W/m 3,5 C 5,2 C 0,0 km/h (0 Bft) 97 %
24.03.2017 22:20 5,0 C 5,0 C 5,2 C 89 % 1028,0 hPa 0,0 l/m 0,0 km/h (0 Bft) N 0 0 min 0,000 mm 0 W/m 3,3 C 5,0 C 0,0 km/h (0 Bft) 98 %
24.03.2017 22:30 4,8 C 4,8 C 5,0 C 90 % 1028,0 hPa 0,0 l/m 0,0 km/h (0 Bft) N 0 0 min 0,000 mm 0 W/m 3,3 C 4,8 C 0,0 km/h (0 Bft) 98 %
24.03.2017 22:40 4,7 C 4,7 C 4,8 C 90 % 1028,0 hPa 0,0 l/m 0,0 km/h (0 Bft) N 0 0 min 0,000 mm 0 W/m 3,2 C 4,7 C 0,0 km/h (0 Bft) 98 %
24.03.2017 22:50 4,6 C 4,6 C 4,7 C 90 % 1027,8 hPa 0,0 l/m 0,0 km/h (0 Bft) N 0 0 min 0,000 mm 0 W/m 3,1 C 4,6 C 0,0 km/h (0 Bft) 98 %
24.03.2017 23:00 4,5 C 4,5 C 4,6 C 90 % 1027,8 hPa 0,0 l/m 0,0 km/h (0 Bft) N 0 0 min 0,000 mm 0 W/m 3,0 C 4,5 C 0,0 km/h (0 Bft) 97 %
24.03.2017 23:10 4,4 C 4,4 C 4,5 C 90 % 1027,8 hPa 0,0 l/m 0,0 km/h (0 Bft) N 0 0 min 0,000 mm 0 W/m 2,9 C 4,4 C 0,0 km/h (0 Bft) 98 %
24.03.2017 23:20 4,3 C 4,3 C 4,4 C 90 % 1027,7 hPa 0,0 l/m 0,0 km/h (0 Bft) N 0 0 min 0,000 mm 0 W/m 2,8 C 4,3 C 0,0 km/h (0 Bft) 93 %
24.03.2017 23:30 4,2 C 4,2 C 4,3 C 91 % 1027,9 hPa 0,0 l/m 0,0 km/h (0 Bft) N 0 0 min 0,000 mm 0 W/m 2,9 C 4,2 C 0,0 km/h (0 Bft) 93 %
24.03.2017 23:40 4,1 C 4,1 C 4,2 C 90 % 1028,0 hPa 0,0 l/m 0,0 km/h (0 Bft) N 0 0 min 0,000 mm 0 W/m 2,6 C 4,1 C 0,0 km/h (0 Bft) 98 %
24.03.2017 23:50 3,9 C 3,9 C 4,1 C 91 % 1027,9 hPa 0,0 l/m 0,0 km/h (0 Bft) N 0 0 min 0,000 mm 0 W/m 2,6 C 3,9 C 0,0 km/h (0 Bft) 98 %
_ Min-Zeit 23:50 23:50 23:50 15:20 00:00 - 00:00 - - - - - 23:50 23:50 00:10 21:40
Minimum _ 3,9 C 3,9 C 4,1 C 76 % 1018,9 hPa - 0,0 km/h (0 Bft) - - - - - 2,6 C 3,9 C 0,0 km/h (0 Bft) 87 %
_ Max-Zeit 16:20 16:20 16:20 04:30 21:50 00:00 15:20 - - 12:00 14:00 13:10 15:40 16:20 09:40 00:10
Maximum _ 10,4 C 10,3 C 10,4 C 92 % 1028,1 hPa 0,0 l/m 6,0 km/h
NO (2 Bft)
- - 10 min 0,102 mm 295 W/m 6,6 C 10,4 C 19,3 km/h
NO (3 Bft)
100 %
Durchschnitt _ 7,3 C 7,3 C 7,4 C 86 % 1024,4 hPa #0,0 l/m 1,1 km/h (1 Bft) NO - #3:30 h #0,686 mm 116 W/m 5,0 C 7,3 C 6,3 km/h (2 Bft) 99 %
PRIVATE WETTERSTATION BILLIGHEIM-ALLFELD - www.neckar-odenwald-wetter.de - Holger Sonntag